sensor_id;sensor_type;location;lat;lon;timestamp;temperature;humidity
8707;DHT22;4390;49.302;9.306;2023-02-20T00:00:57;8.30;98.30
8707;DHT22;4390;49.302;9.306;2023-02-20T00:03:24;8.20;98.30
8707;DHT22;4390;49.302;9.306;2023-02-20T00:05:51;8.10;98.30
8707;DHT22;4390;49.302;9.306;2023-02-20T00:08:18;8.10;98.30
8707;DHT22;4390;49.302;9.306;2023-02-20T00:10:45;8.30;98.30
8707;DHT22;4390;49.302;9.306;2023-02-20T00:13:12;8.30;98.30
8707;DHT22;4390;49.302;9.306;2023-02-20T00:15:38;8.20;98.30
8707;DHT22;4390;49.302;9.306;2023-02-20T00:18:05;8.10;98.30
8707;DHT22;4390;49.302;9.306;2023-02-20T00:20:32;7.90;98.30
8707;DHT22;4390;49.302;9.306;2023-02-20T00:22:59;7.80;98.30
8707;DHT22;4390;49.302;9.306;2023-02-20T00:25:26;7.70;98.30
8707;DHT22;4390;49.302;9.306;2023-02-20T00:27:53;7.80;98.30
8707;DHT22;4390;49.302;9.306;2023-02-20T00:30:22;7.70;98.30
8707;DHT22;4390;49.302;9.306;2023-02-20T00:32:50;7.60;98.30
8707;DHT22;4390;49.302;9.306;2023-02-20T00:35:20;7.60;98.30
8707;DHT22;4390;49.302;9.306;2023-02-20T00:37:48;7.60;98.30
8707;DHT22;4390;49.302;9.306;2023-02-20T00:40:17;7.80;98.30
8707;DHT22;4390;49.302;9.306;2023-02-20T00:42:44;7.90;98.30
8707;DHT22;4390;49.302;9.306;2023-02-20T00:45:12;7.80;98.30
8707;DHT22;4390;49.302;9.306;2023-02-20T00:47:40;7.70;98.30
8707;DHT22;4390;49.302;9.306;2023-02-20T00:50:08;7.70;98.30
8707;DHT22;4390;49.302;9.306;2023-02-20T00:52:35;7.70;98.30
8707;DHT22;4390;49.302;9.306;2023-02-20T00:55:02;7.60;98.30
8707;DHT22;4390;49.302;9.306;2023-02-20T00:57:29;7.70;98.30
8707;DHT22;4390;49.302;9.306;2023-02-20T00:59:55;7.60;98.30
8707;DHT22;4390;49.302;9.306;2023-02-20T01:02:22;7.50;98.30
8707;DHT22;4390;49.302;9.306;2023-02-20T01:04:49;7.50;98.30
8707;DHT22;4390;49.302;9.306;2023-02-20T01:07:16;7.60;98.30
8707;DHT22;4390;49.302;9.306;2023-02-20T01:09:43;7.70;98.30
8707;DHT22;4390;49.302;9.306;2023-02-20T01:12:09;7.50;98.30
8707;DHT22;4390;49.302;9.306;2023-02-20T01:14:36;7.60;98.30
8707;DHT22;4390;49.302;9.306;2023-02-20T01:17:03;7.70;98.30
8707;DHT22;4390;49.302;9.306;2023-02-20T01:19:30;7.40;98.30
8707;DHT22;4390;49.302;9.306;2023-02-20T01:21:57;7.30;98.30
8707;DHT22;4390;49.302;9.306;2023-02-20T01:24:25;7.50;98.30
8707;DHT22;4390;49.302;9.306;2023-02-20T01:26:51;7.30;98.30
8707;DHT22;4390;49.302;9.306;2023-02-20T01:29:18;7.10;98.30
8707;DHT22;4390;49.302;9.306;2023-02-20T01:31:52;7.00;98.30
8707;DHT22;4390;49.302;9.306;2023-02-20T01:34:20;7.30;98.30
8707;DHT22;4390;49.302;9.306;2023-02-20T01:36:49;7.20;98.30
8707;DHT22;4390;49.302;9.306;2023-02-20T01:39:23;7.10;98.30
8707;DHT22;4390;49.302;9.306;2023-02-20T01:41:54;7.10;98.30
8707;DHT22;4390;49.302;9.306;2023-02-20T01:44:28;7.00;98.30
8707;DHT22;4390;49.302;9.306;2023-02-20T01:46:57;7.00;98.30
8707;DHT22;4390;49.302;9.306;2023-02-20T01:49:33;6.90;98.30
8707;DHT22;4390;49.302;9.306;2023-02-20T01:52:16;7.00;98.30
8707;DHT22;4390;49.302;9.306;2023-02-20T01:54:48;7.20;98.30
8707;DHT22;4390;49.302;9.306;2023-02-20T01:57:19;7.20;98.30
8707;DHT22;4390;49.302;9.306;2023-02-20T01:59:48;7.10;98.30
8707;DHT22;4390;49.302;9.306;2023-02-20T02:02:16;7.10;98.30
8707;DHT22;4390;49.302;9.306;2023-02-20T02:04:43;7.00;98.30
8707;DHT22;4390;49.302;9.306;2023-02-20T02:07:11;6.80;98.30
8707;DHT22;4390;49.302;9.306;2023-02-20T02:09:58;6.70;98.30
8707;DHT22;4390;49.302;9.306;2023-02-20T02:12:27;6.70;98.30
8707;DHT22;4390;49.302;9.306;2023-02-20T02:14:54;6.60;98.30
8707;DHT22;4390;49.302;9.306;2023-02-20T02:25:59;6.60;98.30
8707;DHT22;4390;49.302;9.306;2023-02-20T02:45:00;5.90;98.30
8707;DHT22;4390;49.302;9.306;2023-02-20T02:47:40;5.80;98.30
8707;DHT22;4390;49.302;9.306;2023-02-20T02:50:24;5.80;98.30
8707;DHT22;4390;49.302;9.306;2023-02-20T02:52:53;5.80;98.30
8707;DHT22;4390;49.302;9.306;2023-02-20T02:55:26;5.80;98.30
8707;DHT22;4390;49.302;9.306;2023-02-20T02:57:54;5.90;98.30
8707;DHT22;4390;49.302;9.306;2023-02-20T03:00:36;5.90;98.30
8707;DHT22;4390;49.302;9.306;2023-02-20T03:03:28;5.90;98.30
8707;DHT22;4390;49.302;9.306;2023-02-20T03:06:02;6.00;98.30
8707;DHT22;4390;49.302;9.306;2023-02-20T03:08:41;5.90;98.30
8707;DHT22;4390;49.302;9.306;2023-02-20T03:11:15;5.80;98.30
8707;DHT22;4390;49.302;9.306;2023-02-20T03:19:48;5.70;98.30
8707;DHT22;4390;49.302;9.306;2023-02-20T03:22:29;5.70;98.30
8707;DHT22;4390;49.302;9.306;2023-02-20T03:25:08;5.60;98.30
8707;DHT22;4390;49.302;9.306;2023-02-20T03:27:46;5.60;98.30
8707;DHT22;4390;49.302;9.306;2023-02-20T03:30:21;5.60;98.30
8707;DHT22;4390;49.302;9.306;2023-02-20T03:33:03;5.60;98.30
8707;DHT22;4390;49.302;9.306;2023-02-20T03:35:53;5.70;98.30
8707;DHT22;4390;49.302;9.306;2023-02-20T03:38:41;5.60;98.30
8707;DHT22;4390;49.302;9.306;2023-02-20T03:41:30;5.50;98.30
8707;DHT22;4390;49.302;9.306;2023-02-20T03:44:19;5.60;98.30
8707;DHT22;4390;49.302;9.306;2023-02-20T03:46:49;5.60;98.30
8707;DHT22;4390;49.302;9.306;2023-02-20T03:49:20;5.50;98.30
8707;DHT22;4390;49.302;9.306;2023-02-20T03:51:49;5.70;98.30
8707;DHT22;4390;49.302;9.306;2023-02-20T03:54:35;5.80;98.30
8707;DHT22;4390;49.302;9.306;2023-02-20T03:57:15;5.80;98.30
8707;DHT22;4390;49.302;9.306;2023-02-20T04:02:22;5.70;98.30
8707;DHT22;4390;49.302;9.306;2023-02-20T04:04:52;5.60;98.30
8707;DHT22;4390;49.302;9.306;2023-02-20T04:07:27;5.60;98.30
8707;DHT22;4390;49.302;9.306;2023-02-20T04:09:59;5.60;98.30
8707;DHT22;4390;49.302;9.306;2023-02-20T04:12:33;5.60;98.30
8707;DHT22;4390;49.302;9.306;2023-02-20T04:15:03;5.70;98.30
8707;DHT22;4390;49.302;9.306;2023-02-20T04:17:36;5.70;98.30
8707;DHT22;4390;49.302;9.306;2023-02-20T04:20:05;5.60;98.30
8707;DHT22;4390;49.302;9.306;2023-02-20T04:22:39;5.60;98.30
8707;DHT22;4390;49.302;9.306;2023-02-20T04:28:02;5.70;98.30
8707;DHT22;4390;49.302;9.306;2023-02-20T04:30:36;5.50;98.30
8707;DHT22;4390;49.302;9.306;2023-02-20T04:33:04;5.60;98.30
8707;DHT22;4390;49.302;9.306;2023-02-20T04:35:31;5.70;98.30
8707;DHT22;4390;49.302;9.306;2023-02-20T04:37:58;5.60;98.30
8707;DHT22;4390;49.302;9.306;2023-02-20T04:40:25;5.60;98.30
8707;DHT22;4390;49.302;9.306;2023-02-20T04:42:51;5.50;98.30
8707;DHT22;4390;49.302;9.306;2023-02-20T04:45:18;5.40;98.30
8707;DHT22;4390;49.302;9.306;2023-02-20T04:47:45;5.40;98.30
8707;DHT22;4390;49.302;9.306;2023-02-20T04:50:23;5.50;98.30
8707;DHT22;4390;49.302;9.306;2023-02-20T04:52:51;5.40;98.30
8707;DHT22;4390;49.302;9.306;2023-02-20T04:55:18;5.40;98.30
8707;DHT22;4390;49.302;9.306;2023-02-20T04:57:49;5.60;98.30
8707;DHT22;4390;49.302;9.306;2023-02-20T05:00:17;5.60;98.30
8707;DHT22;4390;49.302;9.306;2023-02-20T05:02:44;5.70;98.30
8707;DHT22;4390;49.302;9.306;2023-02-20T05:05:20;5.60;98.30
8707;DHT22;4390;49.302;9.306;2023-02-20T05:07:47;5.50;98.30
8707;DHT22;4390;49.302;9.306;2023-02-20T05:10:16;5.50;98.30
8707;DHT22;4390;49.302;9.306;2023-02-20T05:12:43;5.50;98.30
8707;DHT22;4390;49.302;9.306;2023-02-20T05:15:10;5.40;98.30
8707;DHT22;4390;49.302;9.306;2023-02-20T05:17:37;5.20;98.30
8707;DHT22;4390;49.302;9.306;2023-02-20T05:20:04;5.10;98.30
8707;DHT22;4390;49.302;9.306;2023-02-20T05:22:32;5.20;98.30
8707;DHT22;4390;49.302;9.306;2023-02-20T05:24:59;5.10;98.30
8707;DHT22;4390;49.302;9.306;2023-02-20T05:27:26;5.00;98.30
8707;DHT22;4390;49.302;9.306;2023-02-20T05:29:55;5.10;98.30
8707;DHT22;4390;49.302;9.306;2023-02-20T05:32:25;5.00;98.30
8707;DHT22;4390;49.302;9.306;2023-02-20T05:34:52;5.10;98.30
8707;DHT22;4390;49.302;9.306;2023-02-20T05:37:20;5.20;98.30
8707;DHT22;4390;49.302;9.306;2023-02-20T05:39:49;5.30;98.30
8707;DHT22;4390;49.302;9.306;2023-02-20T05:42:16;5.30;98.30
8707;DHT22;4390;49.302;9.306;2023-02-20T05:44:43;5.40;98.30
8707;DHT22;4390;49.302;9.306;2023-02-20T05:47:10;5.30;98.30
8707;DHT22;4390;49.302;9.306;2023-02-20T05:49:37;5.20;98.30
8707;DHT22;4390;49.302;9.306;2023-02-20T05:52:04;5.20;98.30
8707;DHT22;4390;49.302;9.306;2023-02-20T05:54:38;5.30;98.30
8707;DHT22;4390;49.302;9.306;2023-02-20T05:57:05;5.30;98.30
8707;DHT22;4390;49.302;9.306;2023-02-20T05:59:32;5.30;98.30
8707;DHT22;4390;49.302;9.306;2023-02-20T06:01:59;5.30;98.30
8707;DHT22;4390;49.302;9.306;2023-02-20T06:04:26;5.30;98.30
8707;DHT22;4390;49.302;9.306;2023-02-20T06:06:53;5.40;98.30
8707;DHT22;4390;49.302;9.306;2023-02-20T06:09:20;5.40;98.30
8707;DHT22;4390;49.302;9.306;2023-02-20T06:11:51;5.30;98.30
8707;DHT22;4390;49.302;9.306;2023-02-20T06:14:21;5.20;98.30
8707;DHT22;4390;49.302;9.306;2023-02-20T06:16:48;5.20;98.30
8707;DHT22;4390;49.302;9.306;2023-02-20T06:19:20;5.10;98.30
8707;DHT22;4390;49.302;9.306;2023-02-20T06:21:49;5.00;98.30
8707;DHT22;4390;49.302;9.306;2023-02-20T06:24:16;4.90;98.30
8707;DHT22;4390;49.302;9.306;2023-02-20T06:26:43;4.80;98.30
8707;DHT22;4390;49.302;9.306;2023-02-20T06:29:12;4.70;98.30
8707;DHT22;4390;49.302;9.306;2023-02-20T06:31:39;4.70;98.30
8707;DHT22;4390;49.302;9.306;2023-02-20T06:34:07;4.70;98.30
8707;DHT22;4390;49.302;9.306;2023-02-20T06:36:37;4.50;98.30
8707;DHT22;4390;49.302;9.306;2023-02-20T06:39:07;4.40;98.30
8707;DHT22;4390;49.302;9.306;2023-02-20T06:41:34;4.30;98.30
8707;DHT22;4390;49.302;9.306;2023-02-20T06:44:00;4.40;98.30
8707;DHT22;4390;49.302;9.306;2023-02-20T06:46:27;4.50;98.30
8707;DHT22;4390;49.302;9.306;2023-02-20T06:48:56;4.40;98.30
8707;DHT22;4390;49.302;9.306;2023-02-20T06:51:32;4.40;98.30
8707;DHT22;4390;49.302;9.306;2023-02-20T06:54:00;4.50;98.30
8707;DHT22;4390;49.302;9.306;2023-02-20T06:56:30;4.30;98.30
8707;DHT22;4390;49.302;9.306;2023-02-20T06:58:58;4.20;98.30
8707;DHT22;4390;49.302;9.306;2023-02-20T07:01:28;4.20;98.30
8707;DHT22;4390;49.302;9.306;2023-02-20T07:03:57;4.20;98.30
8707;DHT22;4390;49.302;9.306;2023-02-20T07:06:25;4.40;98.30
8707;DHT22;4390;49.302;9.306;2023-02-20T07:08:52;4.20;98.30
8707;DHT22;4390;49.302;9.306;2023-02-20T07:11:20;4.40;98.30
8707;DHT22;4390;49.302;9.306;2023-02-20T07:13:48;4.40;98.30
8707;DHT22;4390;49.302;9.306;2023-02-20T07:16:15;4.60;98.30
8707;DHT22;4390;49.302;9.306;2023-02-20T07:18:42;4.60;98.30
8707;DHT22;4390;49.302;9.306;2023-02-20T07:21:18;4.60;98.30
8707;DHT22;4390;49.302;9.306;2023-02-20T07:23:53;4.70;98.30
8707;DHT22;4390;49.302;9.306;2023-02-20T07:26:28;4.90;98.30
8707;DHT22;4390;49.302;9.306;2023-02-20T07:28:58;5.10;98.30
8707;DHT22;4390;49.302;9.306;2023-02-20T07:31:30;5.20;98.30
8707;DHT22;4390;49.302;9.306;2023-02-20T07:33:58;5.40;98.30
8707;DHT22;4390;49.302;9.306;2023-02-20T07:36:34;5.50;98.30
8707;DHT22;4390;49.302;9.306;2023-02-20T07:39:02;5.70;98.30
8707;DHT22;4390;49.302;9.306;2023-02-20T07:41:30;5.90;98.30
8707;DHT22;4390;49.302;9.306;2023-02-20T07:43:58;6.00;98.30
8707;DHT22;4390;49.302;9.306;2023-02-20T07:46:25;6.00;98.30
8707;DHT22;4390;49.302;9.306;2023-02-20T07:48:55;6.00;98.30
8707;DHT22;4390;49.302;9.306;2023-02-20T07:51:22;6.10;98.30
8707;DHT22;4390;49.302;9.306;2023-02-20T07:53:50;6.20;98.30
8707;DHT22;4390;49.302;9.306;2023-02-20T07:56:17;6.20;98.30
8707;DHT22;4390;49.302;9.306;2023-02-20T07:58:45;6.30;98.30
8707;DHT22;4390;49.302;9.306;2023-02-20T08:01:13;6.40;98.30
8707;DHT22;4390;49.302;9.306;2023-02-20T08:03:39;6.40;98.30
8707;DHT22;4390;49.302;9.306;2023-02-20T08:06:09;6.50;98.30
8707;DHT22;4390;49.302;9.306;2023-02-20T08:08:39;6.40;98.30
8707;DHT22;4390;49.302;9.306;2023-02-20T08:11:06;6.40;98.30
8707;DHT22;4390;49.302;9.306;2023-02-20T08:13:36;6.40;98.30
8707;DHT22;4390;49.302;9.306;2023-02-20T08:16:03;6.50;98.30
8707;DHT22;4390;49.302;9.306;2023-02-20T08:18:30;6.60;98.30
8707;DHT22;4390;49.302;9.306;2023-02-20T08:20:56;6.70;98.30
8707;DHT22;4390;49.302;9.306;2023-02-20T08:23:23;6.70;98.30
8707;DHT22;4390;49.302;9.306;2023-02-20T08:25:51;6.90;98.30
8707;DHT22;4390;49.302;9.306;2023-02-20T08:28:18;6.90;98.30
8707;DHT22;4390;49.302;9.306;2023-02-20T08:30:45;6.90;98.30
8707;DHT22;4390;49.302;9.306;2023-02-20T08:33:18;7.10;98.30
8707;DHT22;4390;49.302;9.306;2023-02-20T08:35:45;7.20;98.30
8707;DHT22;4390;49.302;9.306;2023-02-20T08:38:27;7.30;98.30
8707;DHT22;4390;49.302;9.306;2023-02-20T08:41:08;7.30;98.30
8707;DHT22;4390;49.302;9.306;2023-02-20T08:43:50;7.20;98.30
8707;DHT22;4390;49.302;9.306;2023-02-20T08:46:17;7.20;98.30
8707;DHT22;4390;49.302;9.306;2023-02-20T08:48:44;7.30;98.30
8707;DHT22;4390;49.302;9.306;2023-02-20T08:51:11;7.50;98.30
8707;DHT22;4390;49.302;9.306;2023-02-20T08:53:39;7.60;98.30
8707;DHT22;4390;49.302;9.306;2023-02-20T08:56:06;7.70;98.30
8707;DHT22;4390;49.302;9.306;2023-02-20T08:58:35;7.90;98.30
8707;DHT22;4390;49.302;9.306;2023-02-20T09:01:08;8.00;98.30
8707;DHT22;4390;49.302;9.306;2023-02-20T09:03:34;7.90;98.30
8707;DHT22;4390;49.302;9.306;2023-02-20T09:06:04;8.10;98.30
8707;DHT22;4390;49.302;9.306;2023-02-20T09:08:32;8.20;98.30
8707;DHT22;4390;49.302;9.306;2023-02-20T09:11:05;8.50;98.20
8707;DHT22;4390;49.302;9.306;2023-02-20T09:13:44;8.70;97.10
8707;DHT22;4390;49.302;9.306;2023-02-20T09:16:13;8.90;97.00
8707;DHT22;4390;49.302;9.306;2023-02-20T09:18:41;8.90;96.70
8707;DHT22;4390;49.302;9.306;2023-02-20T09:21:10;8.90;96.70
8707;DHT22;4390;49.302;9.306;2023-02-20T09:23:45;9.00;96.50
8707;DHT22;4390;49.302;9.306;2023-02-20T09:26:12;9.00;96.30
8707;DHT22;4390;49.302;9.306;2023-02-20T09:28:39;9.00;96.30
8707;DHT22;4390;49.302;9.306;2023-02-20T09:31:06;9.00;96.50
8707;DHT22;4390;49.302;9.306;2023-02-20T09:33:33;8.90;96.40
8707;DHT22;4390;49.302;9.306;2023-02-20T09:36:00;8.90;96.50
8707;DHT22;4390;49.302;9.306;2023-02-20T09:38:27;9.00;96.00
8707;DHT22;4390;49.302;9.306;2023-02-20T09:40:57;9.00;96.00
8707;DHT22;4390;49.302;9.306;2023-02-20T09:43:50;9.10;96.10
8707;DHT22;4390;49.302;9.306;2023-02-20T09:46:24;9.10;96.10
8707;DHT22;4390;49.302;9.306;2023-02-20T09:49:42;9.30;95.40
8707;DHT22;4390;49.302;9.306;2023-02-20T09:51:50;9.40;95.90
8707;DHT22;4390;49.302;9.306;2023-02-20T09:57:00;9.40;95.10
8707;DHT22;4390;49.302;9.306;2023-02-20T09:59:47;9.60;94.70
8707;DHT22;4390;49.302;9.306;2023-02-20T10:02:16;9.80;93.60
8707;DHT22;4390;49.302;9.306;2023-02-20T10:04:49;9.90;93.90
8707;DHT22;4390;49.302;9.306;2023-02-20T10:07:31;9.90;92.90
8707;DHT22;4390;49.302;9.306;2023-02-20T10:09:59;10.00;93.10
8707;DHT22;4390;49.302;9.306;2023-02-20T10:12:34;10.20;92.80
8707;DHT22;4390;49.302;9.306;2023-02-20T10:20:35;11.30;90.40
8707;DHT22;4390;49.302;9.306;2023-02-20T10:25:44;14.00;86.10
8707;DHT22;4390;49.302;9.306;2023-02-20T10:28:17;15.00;83.40
8707;DHT22;4390;49.302;9.306;2023-02-20T10:38:32;16.10;79.50
8707;DHT22;4390;49.302;9.306;2023-02-20T10:49:21;17.80;75.40
8707;DHT22;4390;49.302;9.306;2023-02-20T10:51:55;18.40;75.60
8707;DHT22;4390;49.302;9.306;2023-02-20T10:54:33;19.00;73.80
8707;DHT22;4390;49.302;9.306;2023-02-20T10:57:07;19.90;72.60
8707;DHT22;4390;49.302;9.306;2023-02-20T11:02:17;21.20;70.10
8707;DHT22;4390;49.302;9.306;2023-02-20T11:04:52;22.50;69.20
8707;DHT22;4390;49.302;9.306;2023-02-20T11:07:20;23.40;68.10
8707;DHT22;4390;49.302;9.306;2023-02-20T11:09:50;23.90;66.90
8707;DHT22;4390;49.302;9.306;2023-02-20T11:12:29;24.20;66.20
8707;DHT22;4390;49.302;9.306;2023-02-20T11:15:10;24.70;65.00
8707;DHT22;4390;49.302;9.306;2023-02-20T11:17:39;24.50;64.40
8707;DHT22;4390;49.302;9.306;2023-02-20T11:20:42;24.50;64.30
8707;DHT22;4390;49.302;9.306;2023-02-20T11:26:36;24.80;64.00
8707;DHT22;4390;49.302;9.306;2023-02-20T11:29:12;24.40;63.70
8707;DHT22;4390;49.302;9.306;2023-02-20T11:31:42;24.10;64.20
8707;DHT22;4390;49.302;9.306;2023-02-20T11:34:23;25.00;63.70
8707;DHT22;4390;49.302;9.306;2023-02-20T11:36:54;24.90;62.50
8707;DHT22;4390;49.302;9.306;2023-02-20T11:39:30;24.20;63.60
8707;DHT22;4390;49.302;9.306;2023-02-20T11:44:34;25.10;62.60
8707;DHT22;4390;49.302;9.306;2023-02-20T11:47:22;25.00;61.90
8707;DHT22;4390;49.302;9.306;2023-02-20T11:50:17;25.30;61.60
8707;DHT22;4390;49.302;9.306;2023-02-20T11:52:58;24.60;62.60
8707;DHT22;4390;49.302;9.306;2023-02-20T11:55:26;24.70;62.80
8707;DHT22;4390;49.302;9.306;2023-02-20T11:57:53;25.60;61.10
8707;DHT22;4390;49.302;9.306;2023-02-20T12:00:28;25.30;61.30
8707;DHT22;4390;49.302;9.306;2023-02-20T12:03:19;25.30;62.30
8707;DHT22;4390;49.302;9.306;2023-02-20T12:05:47;25.10;61.70
8707;DHT22;4390;49.302;9.306;2023-02-20T12:08:35;25.50;60.90
8707;DHT22;4390;49.302;9.306;2023-02-20T12:11:17;25.60;60.60
8707;DHT22;4390;49.302;9.306;2023-02-20T12:13:50;26.10;60.50
8707;DHT22;4390;49.302;9.306;2023-02-20T12:19:20;27.30;59.60
8707;DHT22;4390;49.302;9.306;2023-02-20T12:25:25;27.20;59.30
8707;DHT22;4390;49.302;9.306;2023-02-20T12:27:39;27.20;58.80
8707;DHT22;4390;49.302;9.306;2023-02-20T12:33:13;26.90;58.80
8707;DHT22;4390;49.302;9.306;2023-02-20T12:38:47;25.70;60.30
8707;DHT22;4390;49.302;9.306;2023-02-20T12:41:43;26.00;60.00
8707;DHT22;4390;49.302;9.306;2023-02-20T12:47:30;25.20;60.60
8707;DHT22;4390;49.302;9.306;2023-02-20T12:50:04;25.70;60.50
8707;DHT22;4390;49.302;9.306;2023-02-20T12:52:38;25.80;60.40
8707;DHT22;4390;49.302;9.306;2023-02-20T12:58:02;25.40;59.30
8707;DHT22;4390;49.302;9.306;2023-02-20T13:00:46;24.70;60.20
8707;DHT22;4390;49.302;9.306;2023-02-20T13:03:36;24.20;60.80
8707;DHT22;4390;49.302;9.306;2023-02-20T13:06:04;23.50;61.30
8707;DHT22;4390;49.302;9.306;2023-02-20T13:11:22;23.60;61.80
8707;DHT22;4390;49.302;9.306;2023-02-20T13:14:40;23.60;61.60
8707;DHT22;4390;49.302;9.306;2023-02-20T13:20:27;22.70;62.80
8707;DHT22;4390;49.302;9.306;2023-02-20T13:28:24;22.20;62.60
8707;DHT22;4390;49.302;9.306;2023-02-20T13:31:06;21.60;63.20
8707;DHT22;4390;49.302;9.306;2023-02-20T13:33:38;20.80;64.20
8707;DHT22;4390;49.302;9.306;2023-02-20T13:36:14;20.70;65.10
8707;DHT22;4390;49.302;9.306;2023-02-20T13:39:25;20.70;65.10
8707;DHT22;4390;49.302;9.306;2023-02-20T13:42:25;20.60;65.20
8707;DHT22;4390;49.302;9.306;2023-02-20T13:44:55;20.30;66.00
8707;DHT22;4390;49.302;9.306;2023-02-20T13:47:34;20.40;66.30
8707;DHT22;4390;49.302;9.306;2023-02-20T13:50:27;20.70;65.90
8707;DHT22;4390;49.302;9.306;2023-02-20T13:52:55;20.80;65.30
8707;DHT22;4390;49.302;9.306;2023-02-20T13:55:25;20.10;66.40
8707;DHT22;4390;49.302;9.306;2023-02-20T14:02:59;18.70;68.70
8707;DHT22;4390;49.302;9.306;2023-02-20T14:05:29;18.90;68.60
8707;DHT22;4390;49.302;9.306;2023-02-20T14:07:58;18.90;68.20
8707;DHT22;4390;49.302;9.306;2023-02-20T14:12:58;19.70;67.50
8707;DHT22;4390;49.302;9.306;2023-02-20T14:15:27;19.70;66.90
8707;DHT22;4390;49.302;9.306;2023-02-20T14:17:56;19.50;67.30
8707;DHT22;4390;49.302;9.306;2023-02-20T14:20:31;19.00;67.80
8707;DHT22;4390;49.302;9.306;2023-02-20T14:23:06;18.70;68.50
8707;DHT22;4390;49.302;9.306;2023-02-20T14:25:33;18.70;68.90
8707;DHT22;4390;49.302;9.306;2023-02-20T14:28:27;19.00;68.80
8707;DHT22;4390;49.302;9.306;2023-02-20T14:31:18;19.10;68.90
8707;DHT22;4390;49.302;9.306;2023-02-20T14:33:55;19.00;68.10
8707;DHT22;4390;49.302;9.306;2023-02-20T14:42:15;18.60;69.50
8707;DHT22;4390;49.302;9.306;2023-02-20T14:44:48;18.30;69.60
8707;DHT22;4390;49.302;9.306;2023-02-20T14:47:17;18.20;70.10
8707;DHT22;4390;49.302;9.306;2023-02-20T14:49:44;18.40;69.60
8707;DHT22;4390;49.302;9.306;2023-02-20T14:52:29;17.70;70.10
8707;DHT22;4390;49.302;9.306;2023-02-20T14:55:01;17.30;70.70
8707;DHT22;4390;49.302;9.306;2023-02-20T14:57:31;16.60;71.70
8707;DHT22;4390;49.302;9.306;2023-02-20T15:00:08;15.70;73.30
8707;DHT22;4390;49.302;9.306;2023-02-20T15:02:36;15.10;74.80
8707;DHT22;4390;49.302;9.306;2023-02-20T15:05:14;15.00;75.10
8707;DHT22;4390;49.302;9.306;2023-02-20T15:07:45;15.00;75.50
8707;DHT22;4390;49.302;9.306;2023-02-20T15:10:51;15.20;75.60
8707;DHT22;4390;49.302;9.306;2023-02-20T15:13:27;15.30;75.30
8707;DHT22;4390;49.302;9.306;2023-02-20T15:16:24;15.10;75.30
8707;DHT22;4390;49.302;9.306;2023-02-20T15:18:52;14.80;75.90
8707;DHT22;4390;49.302;9.306;2023-02-20T15:21:41;14.50;76.40
8707;DHT22;4390;49.302;9.306;2023-02-20T15:27:10;14.30;77.00
8707;DHT22;4390;49.302;9.306;2023-02-20T15:29:43;14.20;77.70
8707;DHT22;4390;49.302;9.306;2023-02-20T15:32:21;14.50;77.40
8707;DHT22;4390;49.302;9.306;2023-02-20T15:34:54;14.50;76.90
8707;DHT22;4390;49.302;9.306;2023-02-20T15:37:30;14.40;77.20
8707;DHT22;4390;49.302;9.306;2023-02-20T15:40:43;14.40;77.60
8707;DHT22;4390;49.302;9.306;2023-02-20T15:43:12;14.10;78.10
8707;DHT22;4390;49.302;9.306;2023-02-20T15:46:00;14.00;78.50
8707;DHT22;4390;49.302;9.306;2023-02-20T15:48:27;14.10;78.20
8707;DHT22;4390;49.302;9.306;2023-02-20T15:50:55;14.20;77.80
8707;DHT22;4390;49.302;9.306;2023-02-20T15:53:25;14.10;77.60
8707;DHT22;4390;49.302;9.306;2023-02-20T15:55:54;13.80;78.00
8707;DHT22;4390;49.302;9.306;2023-02-20T16:00:59;13.90;79.40
8707;DHT22;4390;49.302;9.306;2023-02-20T16:03:29;13.90;79.30
8707;DHT22;4390;49.302;9.306;2023-02-20T16:06:04;13.70;79.60
8707;DHT22;4390;49.302;9.306;2023-02-20T16:08:33;13.70;79.80
8707;DHT22;4390;49.302;9.306;2023-02-20T16:11:00;13.60;80.10
8707;DHT22;4390;49.302;9.306;2023-02-20T16:13:39;13.40;80.30
8707;DHT22;4390;49.302;9.306;2023-02-20T16:16:19;13.10;80.00
8707;DHT22;4390;49.302;9.306;2023-02-20T16:18:51;13.10;80.40
8707;DHT22;4390;49.302;9.306;2023-02-20T16:21:22;13.10;80.70
8707;DHT22;4390;49.302;9.306;2023-02-20T16:23:50;13.00;80.70
8707;DHT22;4390;49.302;9.306;2023-02-20T16:26:27;12.80;80.60
8707;DHT22;4390;49.302;9.306;2023-02-20T16:29:00;12.70;80.50
8707;DHT22;4390;49.302;9.306;2023-02-20T16:34:30;12.30;80.80
8707;DHT22;4390;49.302;9.306;2023-02-20T16:36:59;12.20;80.90
8707;DHT22;4390;49.302;9.306;2023-02-20T16:39:25;12.10;81.00
8707;DHT22;4390;49.302;9.306;2023-02-20T16:41:57;12.00;80.80
8707;DHT22;4390;49.302;9.306;2023-02-20T16:44:35;12.00;80.90
8707;DHT22;4390;49.302;9.306;2023-02-20T16:47:04;12.10;80.90
8707;DHT22;4390;49.302;9.306;2023-02-20T16:49:33;12.00;80.70
8707;DHT22;4390;49.302;9.306;2023-02-20T16:52:11;11.70;81.10
8707;DHT22;4390;49.302;9.306;2023-02-20T16:54:44;11.70;81.30
8707;DHT22;4390;49.302;9.306;2023-02-20T16:57:11;11.60;81.20
8707;DHT22;4390;49.302;9.306;2023-02-20T16:59:38;11.60;81.10
8707;DHT22;4390;49.302;9.306;2023-02-20T17:02:16;11.70;81.10
8707;DHT22;4390;49.302;9.306;2023-02-20T17:04:43;11.70;81.10
8707;DHT22;4390;49.302;9.306;2023-02-20T17:07:10;11.70;81.20
8707;DHT22;4390;49.302;9.306;2023-02-20T17:09:38;11.70;81.30
8707;DHT22;4390;49.302;9.306;2023-02-20T17:12:11;11.70;81.40
8707;DHT22;4390;49.302;9.306;2023-02-20T17:14:39;11.60;81.70
8707;DHT22;4390;49.302;9.306;2023-02-20T17:17:06;11.50;82.20
8707;DHT22;4390;49.302;9.306;2023-02-20T17:19:36;11.30;82.80
8707;DHT22;4390;49.302;9.306;2023-02-20T17:22:04;11.10;83.30
8707;DHT22;4390;49.302;9.306;2023-02-20T17:24:51;11.10;83.30
8707;DHT22;4390;49.302;9.306;2023-02-20T17:27:23;11.10;83.40
8707;DHT22;4390;49.302;9.306;2023-02-20T17:29:50;11.10;83.60
8707;DHT22;4390;49.302;9.306;2023-02-20T17:32:16;11.10;83.70
8707;DHT22;4390;49.302;9.306;2023-02-20T17:34:44;11.10;83.60
8707;DHT22;4390;49.302;9.306;2023-02-20T17:37:12;11.20;83.50
8707;DHT22;4390;49.302;9.306;2023-02-20T17:39:38;11.20;83.50
8707;DHT22;4390;49.302;9.306;2023-02-20T17:42:06;11.30;83.50
8707;DHT22;4390;49.302;9.306;2023-02-20T17:44:33;11.30;83.50
8707;DHT22;4390;49.302;9.306;2023-02-20T17:47:00;11.20;83.80
8707;DHT22;4390;49.302;9.306;2023-02-20T17:49:27;11.00;84.10
8707;DHT22;4390;49.302;9.306;2023-02-20T17:51:56;11.00;84.40
8707;DHT22;4390;49.302;9.306;2023-02-20T17:54:28;10.90;84.60
8707;DHT22;4390;49.302;9.306;2023-02-20T17:56:57;11.00;84.70
8707;DHT22;4390;49.302;9.306;2023-02-20T17:59:25;10.80;85.00
8707;DHT22;4390;49.302;9.306;2023-02-20T18:01:53;10.80;85.20
8707;DHT22;4390;49.302;9.306;2023-02-20T18:04:20;10.50;85.50
8707;DHT22;4390;49.302;9.306;2023-02-20T18:06:47;10.20;86.00
8707;DHT22;4390;49.302;9.306;2023-02-20T18:09:16;10.10;86.30
8707;DHT22;4390;49.302;9.306;2023-02-20T18:11:43;10.10;86.50
8707;DHT22;4390;49.302;9.306;2023-02-20T18:14:12;10.20;86.30
8707;DHT22;4390;49.302;9.306;2023-02-20T18:16:39;10.10;86.50
8707;DHT22;4390;49.302;9.306;2023-02-20T18:19:10;10.00;86.70
8707;DHT22;4390;49.302;9.306;2023-02-20T18:21:40;9.90;86.80
8707;DHT22;4390;49.302;9.306;2023-02-20T18:24:08;9.90;86.90
8707;DHT22;4390;49.302;9.306;2023-02-20T18:26:36;10.00;87.10
8707;DHT22;4390;49.302;9.306;2023-02-20T18:29:03;9.80;86.90
8707;DHT22;4390;49.302;9.306;2023-02-20T18:31:30;9.60;87.60
8707;DHT22;4390;49.302;9.306;2023-02-20T18:33:57;9.40;88.00
8707;DHT22;4390;49.302;9.306;2023-02-20T18:36:24;9.50;88.00
8707;DHT22;4390;49.302;9.306;2023-02-20T18:38:51;9.40;88.00
8707;DHT22;4390;49.302;9.306;2023-02-20T18:41:22;9.40;87.90
8707;DHT22;4390;49.302;9.306;2023-02-20T18:43:50;9.60;87.60
8707;DHT22;4390;49.302;9.306;2023-02-20T18:46:28;9.60;87.50